Time;durP1;ratioP1;P1;durP2;ratioP2;P2;SDS_P1;SDS_P2;PMS_P1;PMS_P2;Temp;Humidity;BMP_temperature;BMP_pressure;BME280_temperature;BME280_humidity;BME280_pressure;Samples;Min_cycle;Max_cycle;Signal;HPM_P1;HPM_P2
2022/12/24 00:02:19;;;;;;;10.50;9.87;;;11.30;99.90;;;;;;5054566;28;20198;-80
2022/12/24 00:04:44;;;;;;;22.00;20.73;;;11.30;99.90;;;;;;5055574;28;20541;-78
2022/12/24 00:07:10;;;;;;;27.43;25.90;;;11.30;99.90;;;;;;5070327;28;20201;-77
2022/12/24 00:09:36;;;;;;;26.57;25.00;;;11.30;99.90;;;;;;5065728;28;20173;-78
2022/12/24 00:12:02;;;;;;;27.73;26.20;;;11.30;99.90;;;;;;5069914;28;20229;-77
2022/12/24 00:14:28;;;;;;;21.87;20.30;;;11.20;99.90;;;;;;5074178;28;20245;-77
2022/12/24 00:16:54;;;;;;;21.10;19.93;;;11.20;99.90;;;;;;5073581;28;20220;-78
2022/12/24 00:19:20;;;;;;;23.20;21.73;;;11.20;99.90;;;;;;5063513;28;20198;-78
2022/12/24 00:21:46;;;;;;;31.50;29.63;;;11.30;99.90;;;;;;5053732;28;20934;-78
2022/12/24 00:24:11;;;;;;;42.30;39.87;;;11.30;99.90;;;;;;5056807;28;20186;-79
2022/12/24 00:26:37;;;;;;;60.97;57.70;;;11.40;99.90;;;;;;5056882;28;20178;-79
2022/12/24 00:29:03;;;;;;;59.00;56.00;;;11.40;99.90;;;;;;5055791;28;20642;-78
2022/12/24 00:31:29;;;;;;;61.83;58.23;;;11.40;99.90;;;;;;5054598;28;20212;-78
2022/12/24 00:33:55;;;;;;;63.93;60.37;;;11.40;99.90;;;;;;5054708;28;20174;-78
2022/12/24 00:36:21;;;;;;;34.20;32.27;;;11.40;99.90;;;;;;5054115;28;20182;-78
2022/12/24 00:38:47;;;;;;;10.10;9.50;;;11.40;99.90;;;;;;5051848;28;20642;-77
2022/12/24 00:41:27;;;;;;;12.47;11.63;;;11.40;99.90;;;;;;5052317;28;20214;-78
2022/12/24 00:43:56;;;;;;;29.30;27.57;;;11.50;99.90;;;;;;5074650;28;20181;-78
2022/12/24 00:46:23;;;;;;;33.67;31.60;;;11.50;99.90;;;;;;5057839;28;20182;-78
2022/12/24 00:48:48;;;;;;;76.40;72.40;;;11.50;99.90;;;;;;5056358;28;20182;-78
2022/12/24 00:51:15;;;;;;;105.73;100.07;;;11.50;99.90;;;;;;5057417;28;20243;-78
2022/12/24 00:53:41;;;;;;;93.10;87.83;;;11.50;99.90;;;;;;5056309;28;20273;-78
2022/12/24 00:56:07;;;;;;;88.07;83.60;;;11.50;99.90;;;;;;5062469;28;20217;-77
2022/12/24 00:58:34;;;;;;;99.47;94.60;;;11.40;99.90;;;;;;5055573;28;20185;-78
2022/12/24 01:01:00;;;;;;;96.73;91.83;;;11.40;99.90;;;;;;5055972;28;20572;-78
2022/12/24 01:03:37;;;;;;;73.90;69.87;;;11.40;99.90;;;;;;5054816;28;20194;-77
2022/12/24 01:06:11;;;;;;;43.67;41.23;;;11.50;99.90;;;;;;5063947;28;20255;-77
2022/12/24 01:08:37;;;;;;;58.23;55.00;;;11.50;99.90;;;;;;5053351;28;20658;-77
2022/12/24 01:11:05;;;;;;;53.57;50.70;;;11.40;99.90;;;;;;5055190;28;20212;-78
2022/12/24 01:13:31;;;;;;;41.97;39.77;;;11.50;99.90;;;;;;5054048;28;20556;-77
2022/12/24 01:15:57;;;;;;;38.13;35.87;;;11.50;99.90;;;;;;5053960;28;20181;-77
2022/12/24 01:18:23;;;;;;;31.13;29.07;;;11.50;99.90;;;;;;5070089;28;20202;-77
2022/12/24 01:21:01;;;;;;;20.73;19.43;;;11.50;99.90;;;;;;5053300;28;20934;-78
2022/12/24 01:23:31;;;;;;;22.97;21.50;;;11.50;99.90;;;;;;5053712;28;20182;-78
2022/12/24 01:26:02;;;;;;;26.57;25.10;;;11.40;99.90;;;;;;5057250;28;20182;-78
2022/12/24 01:28:31;;;;;;;28.40;26.93;;;11.40;99.90;;;;;;5048726;28;20196;-77
2022/12/24 01:30:58;;;;;;;28.23;26.80;;;11.40;99.90;;;;;;5053893;28;20228;-77
2022/12/24 01:33:26;;;;;;;62.83;59.43;;;11.40;99.90;;;;;;5055815;28;20182;-77
2022/12/24 01:35:52;;;;;;;68.80;65.10;;;11.30;99.90;;;;;;5053865;28;20184;-76
2022/12/24 01:38:18;;;;;;;19.40;18.10;;;10.90;99.90;;;;;;5068967;28;20252;-76
2022/12/24 01:43:31;;;;;;;12.33;11.40;;;10.60;99.90;;;;;;5033264;28;20830;-77
2022/12/24 01:45:58;;;;;;;24.27;22.80;;;10.50;99.90;;;;;;5033346;28;20182;-76
2022/12/24 01:48:47;;;;;;;83.37;78.80;;;10.40;99.90;;;;;;5031279;28;20215;-76
2022/12/24 01:51:18;;;;;;;67.73;64.00;;;10.40;99.90;;;;;;5051633;28;20213;-75
2022/12/24 01:53:48;;;;;;;68.77;65.00;;;10.30;99.90;;;;;;5050606;28;20261;-76
2022/12/24 01:56:14;;;;;;;66.47;62.27;;;10.20;99.90;;;;;;5053017;28;20277;-76
2022/12/24 01:58:45;;;;;;;17.20;15.67;;;10.20;99.90;;;;;;5050920;28;20209;-75
2022/12/24 02:01:11;;;;;;;39.50;37.03;;;10.20;99.90;;;;;;5052809;28;20213;-76
2022/12/24 02:03:36;;;;;;;40.73;38.13;;;10.20;99.90;;;;;;5068242;28;20185;-76
2022/12/24 02:06:03;;;;;;;9.10;8.57;;;10.30;99.90;;;;;;5053066;28;20191;-76
2022/12/24 02:08:38;;;;;;;14.20;9.50;;;10.20;99.90;;;;;;5051740;28;20243;-76
2022/12/24 02:11:20;;;;;;;12.90;11.70;;;10.10;99.90;;;;;;5068016;28;20364;-76
2022/12/24 02:13:50;;;;;;;12.80;11.77;;;10.10;99.90;;;;;;5052701;28;20186;-75
2022/12/24 02:16:35;;;;;;;9.90;9.27;;;10.10;99.90;;;;;;5052760;28;20546;-75
2022/12/24 02:19:39;;;;;;;12.73;7.60;;;10.10;99.90;;;;;;5052073;28;20546;-77
2022/12/24 02:22:39;;;;;;;14.10;9.80;;;10.00;99.90;;;;;;5048991;28;20226;-75
2022/12/24 02:25:27;;;;;;;26.90;25.07;;;10.00;99.90;;;;;;5017968;28;20650;-75
2022/12/24 02:28:06;;;;;;;12.47;9.37;;;10.00;99.90;;;;;;5031715;28;20183;-76
2022/12/24 02:30:37;;;;;;;7.50;5.30;;;10.00;99.90;;;;;;5031098;28;20642;-76
2022/12/24 02:33:24;;;;;;;17.57;5.23;;;10.00;99.90;;;;;;5049856;28;20286;-75
2022/12/24 02:36:09;;;;;;;14.70;7.63;;;10.00;99.90;;;;;;5052251;28;20183;-76
2022/12/24 02:38:44;;;;;;;11.10;5.20;;;10.00;99.90;;;;;;5051618;28;20193;-76
2022/12/24 02:42:04;;;;;;;12.27;7.13;;;9.90;99.90;;;;;;5052246;28;20202;-76
2022/12/24 02:44:16;;;;;;;14.50;7.17;;;9.90;99.90;;;;;;5051907;28;20566;-76
2022/12/24 02:46:42;;;;;;;6.77;5.60;;;9.80;99.90;;;;;;5050584;28;20750;-76
2022/12/24 02:49:08;;;;;;;13.43;7.70;;;9.80;99.90;;;;;;5050366;28;20182;-76
2022/12/24 02:51:34;;;;;;;14.97;9.57;;;9.70;99.90;;;;;;5050424;28;20206;-76
2022/12/24 02:54:00;;;;;;;14.00;9.10;;;9.70;99.90;;;;;;5050644;28;20178;-77
2022/12/24 02:56:31;;;;;;;13.57;6.30;;;9.70;99.90;;;;;;5066944;28;20261;-76
2022/12/24 02:59:20;;;;;;;14.73;5.10;;;9.80;99.90;;;;;;5049904;28;20185;-76
2022/12/24 03:01:51;;;;;;;9.13;8.03;;;9.80;99.90;;;;;;5051560;28;20578;-76
2022/12/24 03:04:39;;;;;;;9.73;5.30;;;9.80;99.90;;;;;;5051480;28;20186;-76
2022/12/24 03:07:13;;;;;;;16.17;5.70;;;9.70;99.90;;;;;;5051019;28;20231;-77
2022/12/24 03:10:02;;;;;;;11.57;5.10;;;9.70;99.90;;;;;;5050653;28;20572;-78
2022/12/24 03:12:53;;;;;;;13.53;4.93;;;9.60;99.90;;;;;;5050133;28;20589;-76
2022/12/24 03:15:21;;;;;;;17.67;13.80;;;9.60;99.90;;;;;;5050248;28;20183;-75
2022/12/24 03:17:49;;;;;;;13.17;10.40;;;9.60;99.90;;;;;;5049958;28;20186;-77
2022/12/24 03:20:21;;;;;;;12.40;11.03;;;9.50;99.90;;;;;;5050227;28;20193;-77
2022/12/24 03:22:47;;;;;;;11.77;8.90;;;9.50;99.90;;;;;;5066772;28;20190;-77
2022/12/24 03:25:13;;;;;;;18.47;6.70;;;9.50;99.90;;;;;;5049898;28;20537;-75
2022/12/24 03:27:40;;;;;;;15.30;10.33;;;9.50;99.90;;;;;;5050546;28;20178;-76
2022/12/24 03:30:11;;;;;;;50.67;47.03;;;9.50;99.90;;;;;;5050971;28;20228;-76
2022/12/24 03:32:37;;;;;;;58.60;54.93;;;9.50;99.90;;;;;;5049800;28;20198;-76
2022/12/24 03:35:04;;;;;;;52.97;49.33;;;9.50;99.90;;;;;;5051265;28;20221;-77
2022/12/24 03:37:30;;;;;;;33.17;29.83;;;9.50;99.90;;;;;;5049944;28;20635;-76
2022/12/24 03:39:55;;;;;;;37.93;34.30;;;9.50;99.90;;;;;;5051427;28;20213;-77
2022/12/24 03:42:21;;;;;;;32.03;28.97;;;9.50;99.90;;;;;;5049665;28;20233;-77
2022/12/24 03:44:47;;;;;;;31.60;29.23;;;9.50;99.90;;;;;;5051454;28;20589;-77
2022/12/24 03:47:13;;;;;;;36.63;33.90;;;9.60;99.90;;;;;;5049093;28;20274;-77
2022/12/24 03:49:38;;;;;;;37.50;34.83;;;9.50;99.90;;;;;;5049500;28;20202;-77
2022/12/24 03:52:04;;;;;;;33.47;30.67;;;9.50;99.90;;;;;;5051087;28;20202;-77
2022/12/24 03:54:30;;;;;;;41.13;37.97;;;9.50;99.90;;;;;;5050421;28;20181;-76
2022/12/24 03:56:56;;;;;;;43.60;40.30;;;9.50;99.90;;;;;;5066463;28;20651;-77
2022/12/24 03:59:21;;;;;;;43.47;40.17;;;9.50;99.90;;;;;;5050043;28;20689;-77
2022/12/24 04:01:47;;;;;;;29.00;27.20;;;9.50;99.90;;;;;;5066699;28;20224;-77
2022/12/24 04:04:13;;;;;;;15.97;12.50;;;9.50;99.90;;;;;;5049954;28;20293;-77
2022/12/24 04:06:39;;;;;;;16.10;14.53;;;9.50;99.90;;;;;;5050764;28;20182;-77
2022/12/24 04:09:04;;;;;;;15.30;13.83;;;9.50;99.90;;;;;;5051987;28;20178;-77
2022/12/24 04:11:31;;;;;;;15.40;10.63;;;9.50;99.90;;;;;;5053911;28;20701;-76
2022/12/24 04:13:58;;;;;;;11.37;6.70;;;9.50;99.90;;;;;;5052838;28;20174;-77
2022/12/24 04:16:23;;;;;;;10.50;6.30;;;9.50;99.90;;;;;;5050724;28;20182;-77
2022/12/24 04:18:49;;;;;;;15.83;14.40;;;9.60;99.90;;;;;;5050409;28;20658;-77
2022/12/24 04:21:15;;;;;;;15.03;13.43;;;9.60;99.90;;;;;;5066634;28;20268;-77
2022/12/24 04:23:41;;;;;;;12.13;10.40;;;9.60;99.90;;;;;;5049671;28;20182;-76
2022/12/24 04:26:10;;;;;;;18.60;17.43;;;9.60;99.90;;;;;;5050509;28;20189;-77
2022/12/24 04:28:36;;;;;;;19.57;15.53;;;9.60;99.90;;;;;;5049145;28;20248;-77
2022/12/24 04:31:07;;;;;;;16.33;15.00;;;9.50;99.90;;;;;;5049502;28;20221;-77
2022/12/24 04:33:33;;;;;;;11.17;9.67;;;9.50;99.90;;;;;;5051069;28;20193;-77
2022/12/24 04:36:01;;;;;;;14.63;10.63;;;9.50;99.90;;;;;;5049994;28;20182;-77
2022/12/24 04:38:27;;;;;;;11.87;10.93;;;9.50;99.90;;;;;;5048749;28;20221;-76
2022/12/24 04:40:58;;;;;;;18.70;17.23;;;9.50;99.90;;;;;;5049435;28;20600;-76
2022/12/24 04:43:24;;;;;;;26.37;24.10;;;9.50;99.90;;;;;;5049025;28;20206;-76
2022/12/24 04:45:50;;;;;;;24.37;19.80;;;9.50;99.90;;;;;;5050862;28;20185;-75
2022/12/24 04:48:16;;;;;;;26.03;23.60;;;9.50;99.90;;;;;;5049850;28;20183;-76
2022/12/24 04:50:41;;;;;;;17.23;15.90;;;9.50;99.90;;;;;;5049265;28;20750;-75
2022/12/24 04:53:07;;;;;;;12.80;11.50;;;9.40;99.90;;;;;;5049467;28;20174;-74
2022/12/24 04:55:33;;;;;;;11.83;7.43;;;9.40;99.90;;;;;;5049388;28;20264;-77
2022/12/24 04:57:58;;;;;;;9.67;7.20;;;9.40;99.90;;;;;;5049414;28;20186;-77
2022/12/24 05:00:24;;;;;;;12.10;10.60;;;9.40;99.90;;;;;;5050379;28;20195;-77
2022/12/24 05:02:50;;;;;;;14.40;11.67;;;9.40;99.90;;;;;;5050714;28;20192;-77
2022/12/24 05:05:16;;;;;;;24.30;22.33;;;9.30;99.90;;;;;;5050111;28;20298;-76
2022/12/24 05:07:41;;;;;;;27.23;24.97;;;9.40;99.90;;;;;;5049809;28;20178;-76
2022/12/24 05:10:08;;;;;;;33.20;30.47;;;9.40;99.90;;;;;;5049335;28;20643;-76
2022/12/24 05:12:34;;;;;;;82.37;77.37;;;9.30;99.90;;;;;;5050257;28;20182;-76
2022/12/24 05:14:59;;;;;;;85.13;79.67;;;9.30;99.90;;;;;;5050411;28;20252;-76
2022/12/24 05:17:25;;;;;;;84.97;79.87;;;9.30;99.90;;;;;;5049876;28;20186;-75
2022/12/24 05:19:51;;;;;;;83.53;78.57;;;9.30;99.90;;;;;;5056517;28;20174;-76
2022/12/24 05:27:45;;;;;;;36.70;34.37;;;9.30;99.90;;;;;;5050448;28;20170;-76
2022/12/24 05:30:11;;;;;;;19.70;17.77;;;9.30;99.90;;;;;;5053857;28;20187;-76
2022/12/24 05:32:37;;;;;;;16.47;11.33;;;9.40;99.90;;;;;;5052609;28;20179;-76
2022/12/24 05:35:03;;;;;;;14.03;9.93;;;9.30;99.90;;;;;;5053980;28;20186;-75
2022/12/24 05:37:29;;;;;;;16.63;9.90;;;9.30;99.90;;;;;;5047469;28;20683;-76
2022/12/24 05:39:54;;;;;;;11.40;10.27;;;9.20;99.90;;;;;;5053618;28;20324;-75
2022/12/24 05:42:20;;;;;;;8.73;7.80;;;9.20;99.90;;;;;;5051930;28;20210;-75
2022/12/24 05:44:46;;;;;;;12.83;7.30;;;9.20;99.90;;;;;;5052049;28;20174;-75
2022/12/24 05:47:12;;;;;;;12.27;6.60;;;9.10;99.90;;;;;;5052245;28;20178;-75
2022/12/24 05:49:37;;;;;;;9.03;8.17;;;9.00;99.90;;;;;;5052046;28;20178;-75
2022/12/24 05:52:03;;;;;;;15.17;11.43;;;9.00;99.90;;;;;;5051892;28;20221;-74
2022/12/24 05:54:29;;;;;;;13.00;11.73;;;8.90;99.90;;;;;;5051778;28;20171;-75
2022/12/24 05:56:55;;;;;;;10.93;9.77;;;8.90;99.90;;;;;;5051842;28;20239;-76
2022/12/24 05:59:20;;;;;;;13.73;12.33;;;8.80;99.90;;;;;;5052453;28;20174;-75
2022/12/24 06:01:47;;;;;;;15.90;14.27;;;8.80;99.90;;;;;;5052705;28;20213;-76
2022/12/24 06:04:13;;;;;;;14.80;13.57;;;8.70;99.90;;;;;;5052958;28;20232;-76
2022/12/24 06:06:38;;;;;;;10.60;9.73;;;8.70;99.90;;;;;;5053996;28;20248;-76
2022/12/24 06:09:04;;;;;;;11.20;8.13;;;8.70;99.90;;;;;;5054090;28;20175;-75
2022/12/24 06:11:30;;;;;;;10.93;6.33;;;8.60;99.90;;;;;;5056802;28;20224;-75
2022/12/24 06:13:56;;;;;;;10.03;5.87;;;8.60;99.90;;;;;;5067876;28;20175;-76
2022/12/24 06:16:24;;;;;;;9.20;8.20;;;8.50;99.90;;;;;;5052761;28;20519;-75
2022/12/24 06:18:50;;;;;;;17.33;12.97;;;8.40;99.90;;;;;;5049224;28;20259;-76
2022/12/24 06:21:16;;;;;;;15.70;14.60;;;8.40;99.90;;;;;;5050707;28;20300;-76
2022/12/24 06:23:44;;;;;;;30.67;28.37;;;8.30;99.90;;;;;;5052362;28;20182;-76
2022/12/24 06:26:13;;;;;;;24.13;22.30;;;8.30;99.90;;;;;;5051794;28;20181;-76
2022/12/24 06:28:39;;;;;;;47.30;44.37;;;8.40;99.90;;;;;;5049939;28;20186;-76
2022/12/24 06:31:09;;;;;;;18.07;16.30;;;8.40;99.90;;;;;;5045501;28;20202;-76
2022/12/24 06:33:35;;;;;;;27.93;26.30;;;8.40;99.90;;;;;;5051395;28;20198;-76
2022/12/24 06:36:01;;;;;;;51.40;47.80;;;8.40;99.90;;;;;;5050934;28;20174;-75
2022/12/24 06:38:29;;;;;;;41.43;38.73;;;8.50;99.90;;;;;;5050862;28;20182;-75
2022/12/24 06:40:54;;;;;;;19.90;17.00;;;8.50;99.90;;;;;;5050858;28;20202;-76
2022/12/24 06:43:20;;;;;;;18.00;15.50;;;8.60;99.90;;;;;;5051064;28;20324;-76
2022/12/24 06:45:46;;;;;;;16.90;15.73;;;8.60;99.90;;;;;;5052031;28;20175;-76
2022/12/24 06:48:13;;;;;;;15.53;14.20;;;8.60;99.90;;;;;;5050584;28;20190;-76
2022/12/24 06:50:40;;;;;;;15.00;13.33;;;8.60;99.90;;;;;;5050899;28;20210;-76
2022/12/24 06:53:06;;;;;;;49.43;46.23;;;8.60;99.90;;;;;;5054519;28;20182;-76
2022/12/24 06:55:32;;;;;;;30.07;28.03;;;8.50;99.90;;;;;;5053344;28;20206;-75
2022/12/24 06:57:58;;;;;;;28.07;26.33;;;8.60;99.90;;;;;;5050446;28;20185;-77
2022/12/24 07:00:24;;;;;;;40.90;38.13;;;8.50;99.90;;;;;;5050736;28;20226;-77
2022/12/24 07:02:50;;;;;;;20.93;18.83;;;8.50;99.90;;;;;;5051513;28;20178;-77
2022/12/24 07:05:16;;;;;;;10.93;7.60;;;8.60;99.90;;;;;;5049589;28;20185;-76
2022/12/24 07:07:43;;;;;;;25.83;23.90;;;8.70;99.90;;;;;;5036166;28;20270;-76
2022/12/24 07:10:12;;;;;;;9.30;8.27;;;8.80;99.90;;;;;;5066652;28;20189;-77
2022/12/24 07:12:38;;;;;;;13.87;11.37;;;8.70;99.90;;;;;;5050825;28;20193;-77
2022/12/24 07:15:04;;;;;;;10.77;10.00;;;8.70;99.90;;;;;;5051788;28;20177;-77
2022/12/24 07:17:30;;;;;;;15.00;8.83;;;8.70;99.90;;;;;;5049764;28;20639;-77
2022/12/24 07:19:56;;;;;;;12.63;11.47;;;8.70;99.90;;;;;;5050539;28;20174;-77
2022/12/24 07:22:22;;;;;;;18.67;16.63;;;8.80;99.90;;;;;;5051867;28;20210;-76
2022/12/24 07:24:48;;;;;;;15.33;12.73;;;8.70;99.90;;;;;;5051423;28;20206;-78
2022/12/24 07:27:13;;;;;;;11.33;9.23;;;8.70;99.90;;;;;;5050159;28;20185;-77
2022/12/24 07:29:40;;;;;;;19.77;12.87;;;8.70;99.90;;;;;;5052448;28;20265;-77
2022/12/24 07:32:06;;;;;;;24.20;22.80;;;8.80;99.90;;;;;;5050852;28;20224;-67
2022/12/24 07:34:31;;;;;;;32.70;30.30;;;8.80;99.90;;;;;;5050466;28;20182;-65
2022/12/24 07:36:57;;;;;;;20.60;18.20;;;8.90;99.90;;;;;;5051058;28;20189;-64
2022/12/24 07:39:23;;;;;;;20.73;18.73;;;9.00;99.90;;;;;;5051282;28;20182;-65
2022/12/24 07:41:49;;;;;;;17.30;15.67;;;9.10;99.90;;;;;;5050219;28;20211;-64
2022/12/24 07:44:16;;;;;;;21.27;12.20;;;9.10;99.90;;;;;;5051871;28;20181;-66
2022/12/24 07:46:42;;;;;;;23.63;22.00;;;9.10;99.90;;;;;;5053527;28;20186;-63
2022/12/24 07:49:11;;;;;;;11.50;6.70;;;9.20;99.90;;;;;;5054961;28;20174;-63
2022/12/24 07:51:37;;;;;;;11.07;6.23;;;9.20;99.90;;;;;;5052805;28;20214;-67
2022/12/24 07:54:03;;;;;;;11.10;8.00;;;9.20;99.90;;;;;;5049780;28;20232;-69
2022/12/24 07:56:31;;;;;;;13.73;7.53;;;9.20;99.90;;;;;;5049421;28;20201;-69
2022/12/24 07:58:56;;;;;;;14.13;8.33;;;9.20;99.90;;;;;;5048558;28;20589;-68
2022/12/24 08:01:22;;;;;;;12.07;7.93;;;9.20;99.90;;;;;;5050543;28;20289;-68
2022/12/24 08:03:50;;;;;;;16.70;15.43;;;9.20;99.90;;;;;;5050016;28;20239;-67
2022/12/24 08:06:16;;;;;;;24.00;22.53;;;9.30;99.90;;;;;;5046326;28;20236;-68
2022/12/24 08:08:42;;;;;;;16.47;15.07;;;9.40;99.90;;;;;;5061005;28;20178;-68
2022/12/24 08:11:08;;;;;;;10.23;9.37;;;9.30;99.90;;;;;;5066347;28;20225;-70
2022/12/24 08:13:34;;;;;;;16.50;12.53;;;9.20;99.90;;;;;;5053130;28;20189;-70
2022/12/24 08:16:00;;;;;;;15.63;13.83;;;9.10;99.90;;;;;;5054055;28;20754;-71
2022/12/24 08:18:26;;;;;;;23.37;21.10;;;9.00;99.90;;;;;;5052772;28;20194;-72
2022/12/24 08:20:51;;;;;;;23.13;21.33;;;9.00;99.90;;;;;;5053450;28;20217;-71
2022/12/24 08:23:17;;;;;;;13.17;11.77;;;9.00;99.90;;;;;;5049373;28;20210;-71
2022/12/24 08:25:45;;;;;;;12.37;11.13;;;9.00;99.90;;;;;;5048279;28;20277;-70
2022/12/24 08:28:11;;;;;;;14.23;11.20;;;9.00;99.90;;;;;;5048514;28;20301;-70
2022/12/24 08:30:37;;;;;;;14.67;13.17;;;9.00;99.90;;;;;;5049855;28;20549;-70
2022/12/24 08:33:03;;;;;;;15.53;12.83;;;8.90;99.90;;;;;;5052340;28;20182;-69
2022/12/24 08:35:29;;;;;;;26.03;24.03;;;9.00;99.90;;;;;;5051166;28;20225;-71
2022/12/24 08:37:54;;;;;;;14.47;13.27;;;9.00;99.90;;;;;;5050835;28;20555;-69
2022/12/24 08:40:20;;;;;;;17.60;16.13;;;9.10;99.90;;;;;;5052831;28;20187;-70
2022/12/24 08:42:46;;;;;;;13.30;11.70;;;9.10;99.90;;;;;;5050961;28;20183;-70
2022/12/24 08:45:12;;;;;;;21.87;20.30;;;9.10;99.90;;;;;;5052283;28;20175;-69
2022/12/24 08:47:38;;;;;;;14.97;13.47;;;9.20;99.90;;;;;;5050629;28;20190;-70
2022/12/24 08:50:05;;;;;;;14.33;13.30;;;9.20;99.90;;;;;;5052469;28;20240;-70
2022/12/24 08:52:31;;;;;;;14.57;13.30;;;9.30;99.90;;;;;;5051996;28;20206;-69
2022/12/24 08:54:57;;;;;;;19.07;17.60;;;9.40;99.90;;;;;;5050632;28;20350;-68
2022/12/24 08:57:23;;;;;;;18.43;16.83;;;9.50;99.90;;;;;;5049827;28;20297;-68
2022/12/24 08:59:48;;;;;;;13.93;12.63;;;9.50;99.90;;;;;;5048047;28;20190;-68
2022/12/24 09:02:14;;;;;;;14.27;11.20;;;9.50;99.90;;;;;;5050091;28;20206;-68
2022/12/24 09:04:40;;;;;;;31.97;21.80;;;9.50;99.90;;;;;;5054726;28;20208;-68
2022/12/24 09:07:07;;;;;;;14.30;12.83;;;9.60;99.90;;;;;;5053826;28;20182;-69
2022/12/24 09:09:33;;;;;;;12.83;10.60;;;9.60;99.90;;;;;;5053806;28;20216;-70
2022/12/24 09:11:59;;;;;;;28.27;26.20;;;9.70;99.90;;;;;;5054204;28;20295;-70
2022/12/24 09:14:25;;;;;;;93.10;88.20;;;9.80;99.90;;;;;;5047027;28;20191;-69
2022/12/24 09:16:51;;;;;;;63.00;59.20;;;9.90;99.90;;;;;;5048636;28;20179;-70
2022/12/24 09:19:16;;;;;;;42.60;39.70;;;10.00;99.90;;;;;;5051113;28;20431;-70
2022/12/24 09:21:42;;;;;;;22.37;20.40;;;10.10;99.90;;;;;;5059434;28;20217;-70
2022/12/24 09:24:08;;;;;;;16.47;14.83;;;10.40;99.90;;;;;;5054587;28;20186;-70
2022/12/24 09:26:35;;;;;;;11.83;7.90;;;10.50;99.90;;;;;;5053999;28;20257;-71
2022/12/24 09:29:01;;;;;;;18.73;8.93;;;10.60;99.90;;;;;;5052323;28;20205;-67
2022/12/24 09:31:28;;;;;;;18.33;13.93;;;10.60;99.90;;;;;;5053423;28;20716;-68
2022/12/24 09:33:54;;;;;;;79.00;71.87;;;10.60;99.90;;;;;;5054006;28;20555;-70
2022/12/24 09:36:20;;;;;;;69.37;65.37;;;10.60;99.90;;;;;;5051869;28;20175;-71
2022/12/24 09:38:47;;;;;;;60.50;56.90;;;10.60;99.90;;;;;;5051644;28;20202;-71
2022/12/24 09:41:40;;;;;;;59.73;55.53;;;10.60;99.90;;;;;;5053260;28;20204;-70
2022/12/24 09:44:08;;;;;;;57.37;53.80;;;10.70;99.90;;;;;;5051071;28;20263;-70
2022/12/24 09:46:39;;;;;;;36.37;33.97;;;10.80;99.90;;;;;;5053397;28;20182;-71
2022/12/24 09:49:13;;;;;;;52.83;49.50;;;10.90;99.90;;;;;;5052614;28;20186;-70
2022/12/24 09:51:43;;;;;;;35.37;32.87;;;11.70;99.90;;;;;;5052138;28;20691;-70
2022/12/24 09:54:27;;;;;;;22.17;20.27;;;12.70;99.90;;;;;;5053233;28;20186;-72
2022/12/24 09:56:55;;;;;;;12.33;10.93;;;13.50;99.90;;;;;;5052491;28;20182;-72
2022/12/24 09:59:41;;;;;;;14.33;10.70;;;14.60;99.90;;;;;;5051663;28;20174;-68
2022/12/24 10:02:13;;;;;;;19.50;18.10;;;15.30;99.90;;;;;;5046826;28;20202;-67
2022/12/24 10:04:40;;;;;;;9.40;8.33;;;15.90;99.90;;;;;;5051441;28;20643;-70
2022/12/24 10:07:57;;;;;;;27.10;25.33;;;16.10;99.90;;;;;;5051874;28;20190;-70
2022/12/24 10:10:32;;;;;;;22.77;20.73;;;17.20;99.90;;;;;;5050479;28;20569;-67
2022/12/24 10:13:05;;;;;;;11.23;10.17;;;18.10;99.90;;;;;;5048078;28;20224;-67
2022/12/24 10:15:52;;;;;;;15.23;13.87;;;18.20;99.90;;;;;;5037232;28;20186;-66
2022/12/24 10:18:39;;;;;;;10.30;7.53;;;18.80;99.90;;;;;;5032180;28;20324;-66
2022/12/24 10:21:15;;;;;;;9.30;8.33;;;18.50;99.90;;;;;;5050915;28;20210;-66
2022/12/24 10:24:09;;;;;;;11.30;8.80;;;18.20;99.90;;;;;;5052777;28;20259;-64
2022/12/24 10:26:45;;;;;;;13.43;8.93;;;18.80;99.90;;;;;;5051880;28;20198;-64
2022/12/24 10:29:19;;;;;;;26.03;24.10;;;19.00;99.90;;;;;;5052088;28;20686;-64
2022/12/24 10:32:09;;;;;;;19.77;18.03;;;19.70;99.90;;;;;;5052308;28;20296;-65
2022/12/24 10:34:41;;;;;;;13.13;10.30;;;20.00;99.90;;;;;;5052598;28;20213;-64
2022/12/24 10:37:22;;;;;;;10.63;9.33;;;20.40;99.90;;;;;;5051101;28;20282;-64
2022/12/24 10:39:48;;;;;;;10.73;9.13;;;18.70;99.90;;;;;;5050899;28;20316;-66
2022/12/24 10:42:16;;;;;;;14.03;12.57;;;17.60;99.90;;;;;;5052324;28;20206;-65
2022/12/24 10:44:46;;;;;;;47.80;44.57;;;16.40;99.90;;;;;;5051899;28;20220;-66
2022/12/24 10:47:13;;;;;;;23.20;21.57;;;15.80;99.90;;;;;;5050331;28;20658;-65
2022/12/24 10:49:50;;;;;;;11.83;6.00;;;15.40;99.90;;;;;;5050231;28;20190;-64
2022/12/24 10:52:23;;;;;;;7.47;5.43;;;15.20;99.90;;;;;;5052275;28;20225;-68
2022/12/24 10:55:07;;;;;;;14.77;7.03;;;15.40;99.90;;;;;;5051934;28;20182;-69
2022/12/24 10:57:32;;;;;;;12.23;6.93;;;16.50;99.90;;;;;;5049230;28;20270;-67
2022/12/24 10:59:59;;;;;;;10.23;6.33;;;16.30;99.90;;;;;;5051711;28;20600;-67
2022/12/24 11:02:35;;;;;;;15.07;7.60;;;15.80;99.90;;;;;;5067439;28;20718;-67
2022/12/24 11:05:06;;;;;;;16.63;10.17;;;15.00;99.90;;;;;;5051116;28;20243;-66
2022/12/24 11:07:33;;;;;;;12.93;8.00;;;14.40;99.90;;;;;;5049113;28;20192;-67
2022/12/24 11:10:04;;;;;;;12.80;7.90;;;14.00;99.90;;;;;;5034809;28;20178;-67
2022/12/24 11:12:37;;;;;;;12.80;6.87;;;13.90;99.90;;;;;;5050636;28;20597;-67
2022/12/24 11:15:03;;;;;;;14.27;8.03;;;13.80;99.90;;;;;;5051878;28;20240;-66
2022/12/24 11:17:29;;;;;;;13.67;7.57;;;13.70;99.90;;;;;;5051303;28;20542;-67
2022/12/24 11:19:55;;;;;;;10.57;6.57;;;13.60;99.90;;;;;;5050963;28;20174;-66
2022/12/24 11:22:27;;;;;;;12.10;7.13;;;13.60;99.90;;;;;;5050625;28;20224;-67
2022/12/24 11:25:06;;;;;;;9.60;6.00;;;13.50;99.90;;;;;;5050314;28;20240;-67
2022/12/24 11:27:48;;;;;;;10.87;5.80;;;13.20;99.90;;;;;;5050784;28;20213;-67
2022/12/24 11:30:14;;;;;;;10.53;5.73;;;13.10;99.90;;;;;;5051575;28;20215;-66
2022/12/24 11:32:59;;;;;;;11.60;6.37;;;13.00;99.90;;;;;;5050249;28;20248;-66
2022/12/24 11:35:25;;;;;;;8.20;7.33;;;13.00;99.90;;;;;;5049471;28;20196;-66
2022/12/24 11:38:00;;;;;;;13.03;8.47;;;12.90;99.90;;;;;;5050652;28;20175;-66
2022/12/24 11:40:39;;;;;;;10.60;8.13;;;12.80;99.90;;;;;;5051453;28;20285;-69
2022/12/24 11:43:06;;;;;;;9.77;8.00;;;12.80;99.90;;;;;;5050617;28;20276;-68
2022/12/24 11:45:33;;;;;;;13.17;11.93;;;12.80;99.90;;;;;;5051353;28;20174;-68
2022/12/24 11:47:59;;;;;;;13.97;12.67;;;12.80;99.90;;;;;;5050816;28;20212;-68
2022/12/24 11:50:35;;;;;;;17.90;16.50;;;12.80;99.90;;;;;;5050011;28;20256;-69
2022/12/24 11:53:01;;;;;;;22.03;20.07;;;12.80;99.90;;;;;;5051662;28;20178;-68
2022/12/24 11:55:54;;;;;;;19.10;17.40;;;12.80;99.90;;;;;;5051069;28;20174;-68
2022/12/24 11:58:47;;;;;;;20.43;18.33;;;12.80;99.90;;;;;;5043593;28;20265;-68
2022/12/24 12:01:37;;;;;;;17.33;15.33;;;12.70;99.90;;;;;;5049003;28;20225;-67
2022/12/24 12:04:23;;;;;;;19.47;17.63;;;12.70;99.90;;;;;;5049269;28;20528;-68
2022/12/24 12:06:54;;;;;;;24.23;22.47;;;12.60;99.90;;;;;;5049127;28;20185;-67
2022/12/24 12:09:30;;;;;;;25.33;22.90;;;12.50;99.90;;;;;;5050865;28;20233;-67
2022/12/24 12:12:12;;;;;;;31.63;29.30;;;12.50;99.90;;;;;;5049542;28;20214;-67
2022/12/24 12:14:45;;;;;;;40.87;37.77;;;12.40;99.90;;;;;;5050982;28;20243;-67
2022/12/24 12:17:49;;;;;;;41.83;39.17;;;12.50;99.90;;;;;;5050290;28;20551;-67
2022/12/24 12:20:23;;;;;;;40.40;38.10;;;12.50;99.90;;;;;;5050325;28;20594;-67
2022/12/24 12:23:18;;;;;;;43.00;39.90;;;12.70;99.90;;;;;;5050240;28;20178;-67
2022/12/24 12:25:50;;;;;;;41.73;39.10;;;12.90;99.90;;;;;;5049124;28;20197;-67
2022/12/24 12:28:39;;;;;;;33.63;31.13;;;13.00;99.90;;;;;;5064879;28;20193;-67
2022/12/24 12:31:08;;;;;;;37.57;35.10;;;13.20;99.90;;;;;;5049739;28;20674;-67
2022/12/24 12:33:40;;;;;;;34.00;31.57;;;13.30;99.90;;;;;;5049731;28;20224;-67
2022/12/24 12:36:09;;;;;;;40.33;37.83;;;13.40;99.90;;;;;;5039138;28;20183;-67
2022/12/24 12:38:36;;;;;;;29.37;27.27;;;13.70;99.90;;;;;;5050202;28;20272;-67
2022/12/24 12:41:19;;;;;;;23.40;21.73;;;13.70;99.90;;;;;;5053289;28;20233;-67
2022/12/24 12:44:18;;;;;;;41.00;38.23;;;13.80;99.90;;;;;;5053144;28;20529;-67
2022/12/24 12:46:57;;;;;;;52.63;49.00;;;13.70;99.90;;;;;;5052804;28;20213;-68
2022/12/24 12:49:46;;;;;;;41.53;37.90;;;13.40;99.90;;;;;;5051723;28;20185;-67
2022/12/24 12:52:22;;;;;;;14.30;7.07;;;13.00;99.90;;;;;;5045167;28;20240;-67
2022/12/24 12:55:16;;;;;;;11.97;7.87;;;13.10;99.90;;;;;;5053232;28;20650;-68
2022/12/24 12:57:46;;;;;;;20.90;17.63;;;12.90;99.90;;;;;;5052434;28;20295;-67
2022/12/24 13:00:17;;;;;;;37.77;35.13;;;12.70;99.90;;;;;;5053045;28;20650;-68